sensor_id;sensor_type;location;lat;lon;timestamp;pressure;altitude;pressure_sealevel;temperature;humidity
76866;BME280;66647;52.124;5.416;2023-05-07T00:00:58;101739.56;;;14.99;84.86
76866;BME280;66647;52.124;5.416;2023-05-07T00:03:25;101745.31;;;14.94;84.71
76866;BME280;66647;52.124;5.416;2023-05-07T00:05:52;101748.38;;;14.92;84.87
76866;BME280;66647;52.124;5.416;2023-05-07T00:08:19;101758.28;;;14.93;85.01
76866;BME280;66647;52.124;5.416;2023-05-07T00:10:46;101759.09;;;14.94;85.10
76866;BME280;66647;52.124;5.416;2023-05-07T00:13:13;101750.47;;;14.95;84.99
76866;BME280;66647;52.124;5.416;2023-05-07T00:15:40;101758.41;;;14.97;85.07
76866;BME280;66647;52.124;5.416;2023-05-07T00:18:06;101752.09;;;14.96;85.08
76866;BME280;66647;52.124;5.416;2023-05-07T00:20:33;101755.16;;;14.95;84.85
76866;BME280;66647;52.124;5.416;2023-05-07T00:23:01;101746.28;;;14.89;84.88
76866;BME280;66647;52.124;5.416;2023-05-07T00:25:28;101754.44;;;14.86;84.70
76866;BME280;66647;52.124;5.416;2023-05-07T00:27:54;101750.56;;;14.78;85.21
76866;BME280;66647;52.124;5.416;2023-05-07T00:30:21;101746.50;;;14.75;85.17
76866;BME280;66647;52.124;5.416;2023-05-07T00:32:47;101737.59;;;14.70;85.70
76866;BME280;66647;52.124;5.416;2023-05-07T00:35:15;101741.34;;;14.65;85.48
76866;BME280;66647;52.124;5.416;2023-05-07T00:37:41;101740.53;;;14.65;85.34
76866;BME280;66647;52.124;5.416;2023-05-07T00:40:08;101736.50;;;14.62;85.67
76866;BME280;66647;52.124;5.416;2023-05-07T00:42:35;101736.22;;;14.55;85.71
76866;BME280;66647;52.124;5.416;2023-05-07T00:45:03;101729.09;;;14.45;86.20
76866;BME280;66647;52.124;5.416;2023-05-07T00:47:30;101727.34;;;14.41;86.19
76866;BME280;66647;52.124;5.416;2023-05-07T00:49:57;101724.56;;;14.41;86.04
76866;BME280;66647;52.124;5.416;2023-05-07T00:52:26;101730.09;;;14.41;86.21
76866;BME280;66647;52.124;5.416;2023-05-07T00:54:54;101723.25;;;14.47;86.43
76866;BME280;66647;52.124;5.416;2023-05-07T00:57:21;101734.13;;;14.43;86.39
76866;BME280;66647;52.124;5.416;2023-05-07T00:59:48;101729.91;;;14.46;86.51
76866;BME280;66647;52.124;5.416;2023-05-07T01:02:15;101726.97;;;14.51;86.37
76866;BME280;66647;52.124;5.416;2023-05-07T01:04:41;101727.13;;;14.55;85.95
76866;BME280;66647;52.124;5.416;2023-05-07T01:07:09;101715.59;;;14.53;85.89
76866;BME280;66647;52.124;5.416;2023-05-07T01:09:36;101721.59;;;14.55;86.12
76866;BME280;66647;52.124;5.416;2023-05-07T01:12:03;101722.41;;;14.55;86.24
76866;BME280;66647;52.124;5.416;2023-05-07T01:14:31;101722.91;;;14.57;86.13
76866;BME280;66647;52.124;5.416;2023-05-07T01:16:59;101722.09;;;14.57;86.36
76866;BME280;66647;52.124;5.416;2023-05-07T01:19:28;101723.72;;;14.58;86.23
76866;BME280;66647;52.124;5.416;2023-05-07T01:22:01;101719.81;;;14.59;86.22
76866;BME280;66647;52.124;5.416;2023-05-07T01:24:31;101725.00;;;14.60;86.66
76866;BME280;66647;52.124;5.416;2023-05-07T01:26:59;101720.72;;;14.63;86.42
76866;BME280;66647;52.124;5.416;2023-05-07T01:29:30;101721.91;;;14.62;86.41
76866;BME280;66647;52.124;5.416;2023-05-07T01:31:59;101717.84;;;14.59;86.44
76866;BME280;66647;52.124;5.416;2023-05-07T01:34:28;101724.03;;;14.56;86.37
76866;BME280;66647;52.124;5.416;2023-05-07T01:36:56;101728.41;;;14.57;86.66
76866;BME280;66647;52.124;5.416;2023-05-07T01:39:25;101726.13;;;14.59;86.47
76866;BME280;66647;52.124;5.416;2023-05-07T01:41:56;101723.06;;;14.61;86.62
76866;BME280;66647;52.124;5.416;2023-05-07T01:44:24;101721.91;;;14.62;86.36
76866;BME280;66647;52.124;5.416;2023-05-07T01:46:51;101722.25;;;14.60;86.73
76866;BME280;66647;52.124;5.416;2023-05-07T01:49:18;101730.03;;;14.58;86.86
76866;BME280;66647;52.124;5.416;2023-05-07T01:51:45;101728.41;;;14.57;86.74
76866;BME280;66647;52.124;5.416;2023-05-07T01:54:11;101721.75;;;14.58;86.93
76866;BME280;66647;52.124;5.416;2023-05-07T01:56:38;101720.63;;;14.59;86.83
76866;BME280;66647;52.124;5.416;2023-05-07T01:59:04;101731.66;;;14.59;86.98
76866;BME280;66647;52.124;5.416;2023-05-07T02:01:31;101724.50;;;14.58;86.70
76866;BME280;66647;52.124;5.416;2023-05-07T02:03:58;101719.00;;;14.58;86.81
76866;BME280;66647;52.124;5.416;2023-05-07T02:06:27;101719.81;;;14.59;86.87
76866;BME280;66647;52.124;5.416;2023-05-07T02:08:58;101725.00;;;14.60;86.75
76866;BME280;66647;52.124;5.416;2023-05-07T02:11:25;101730.69;;;14.55;86.75
76866;BME280;66647;52.124;5.416;2023-05-07T02:13:51;101728.13;;;14.50;87.08
76866;BME280;66647;52.124;5.416;2023-05-07T02:16:19;101727.78;;;14.52;87.16
76866;BME280;66647;52.124;5.416;2023-05-07T02:18:46;101729.41;;;14.53;87.28
76866;BME280;66647;52.124;5.416;2023-05-07T02:21:12;101723.56;;;14.54;87.26
76866;BME280;66647;52.124;5.416;2023-05-07T02:23:39;101723.56;;;14.54;87.31
76866;BME280;66647;52.124;5.416;2023-05-07T02:26:06;101714.47;;;14.54;87.34
76866;BME280;66647;52.124;5.416;2023-05-07T02:28:33;101722.59;;;14.50;87.20
76866;BME280;66647;52.124;5.416;2023-05-07T02:31:04;101723.09;;;14.43;87.56
76866;BME280;66647;52.124;5.416;2023-05-07T02:33:31;101722.44;;;14.47;87.53
76866;BME280;66647;52.124;5.416;2023-05-07T02:36:10;101718.06;;;14.45;87.66
76866;BME280;66647;52.124;5.416;2023-05-07T02:38:50;101724.53;;;14.50;87.96
76866;BME280;66647;52.124;5.416;2023-05-07T02:41:16;101718.53;;;14.48;88.04
76866;BME280;66647;52.124;5.416;2023-05-07T02:43:43;101722.44;;;14.47;88.03
76866;BME280;66647;52.124;5.416;2023-05-07T02:46:09;101717.59;;;14.43;87.37
76866;BME280;66647;52.124;5.416;2023-05-07T02:48:40;101714.63;;;14.40;88.09
76866;BME280;66647;52.124;5.416;2023-05-07T02:51:07;101713.34;;;14.37;88.05
76866;BME280;66647;52.124;5.416;2023-05-07T02:53:35;101711.25;;;14.34;88.44
76866;BME280;66647;52.124;5.416;2023-05-07T02:56:02;101715.69;;;14.27;88.13
76866;BME280;66647;52.124;5.416;2023-05-07T02:58:29;101713.09;;;14.22;88.63
76866;BME280;66647;52.124;5.416;2023-05-07T03:00:57;101715.03;;;14.21;88.44
76866;BME280;66647;52.124;5.416;2023-05-07T03:03:37;101720.56;;;14.21;88.30
76866;BME280;66647;52.124;5.416;2023-05-07T03:06:04;101728.03;;;14.21;88.54
76866;BME280;66647;52.124;5.416;2023-05-07T03:08:30;101722.19;;;14.22;88.67
76866;BME280;66647;52.124;5.416;2023-05-07T03:10:57;101723.81;;;14.23;88.64
76866;BME280;66647;52.124;5.416;2023-05-07T03:13:23;101715.69;;;14.27;88.85
76866;BME280;66647;52.124;5.416;2023-05-07T03:15:51;101712.91;;;14.27;88.89
76866;BME280;66647;52.124;5.416;2023-05-07T03:18:17;101719.09;;;14.24;88.79
76866;BME280;66647;52.124;5.416;2023-05-07T03:20:44;101710.81;;;14.24;88.75
76866;BME280;66647;52.124;5.416;2023-05-07T03:23:10;101720.88;;;14.20;88.47
76866;BME280;66647;52.124;5.416;2023-05-07T03:25:39;101708.56;;;14.17;88.51
76866;BME280;66647;52.124;5.416;2023-05-07T03:28:05;101713.25;;;14.17;88.64
76866;BME280;66647;52.124;5.416;2023-05-07T03:30:38;101714.72;;;14.14;88.81
76866;BME280;66647;52.124;5.416;2023-05-07T03:33:05;101711.81;;;14.10;88.78
76866;BME280;66647;52.124;5.416;2023-05-07T03:35:32;101709.72;;;14.07;88.90
76866;BME280;66647;52.124;5.416;2023-05-07T03:37:58;101715.06;;;14.04;89.18
76866;BME280;66647;52.124;5.416;2023-05-07T03:40:28;101717.50;;;14.05;89.26
76866;BME280;66647;52.124;5.416;2023-05-07T03:42:55;101715.41;;;14.02;89.15
76866;BME280;66647;52.124;5.416;2023-05-07T03:45:24;101717.81;;;14.04;89.49
76866;BME280;66647;52.124;5.416;2023-05-07T03:48:00;101715.88;;;14.04;89.03
76866;BME280;66647;52.124;5.416;2023-05-07T03:50:27;101727.06;;;13.99;89.33
76866;BME280;66647;52.124;5.416;2023-05-07T03:52:54;101714.09;;;14.00;89.35
76866;BME280;66647;52.124;5.416;2023-05-07T03:55:22;101717.19;;;13.98;89.22
76866;BME280;66647;52.124;5.416;2023-05-07T03:57:53;101716.25;;;13.94;89.23
76866;BME280;66647;52.124;5.416;2023-05-07T04:00:20;101719.00;;;13.94;89.39
76866;BME280;66647;52.124;5.416;2023-05-07T04:02:47;101730.69;;;13.91;89.34
76866;BME280;66647;52.124;5.416;2023-05-07T04:05:18;101726.31;;;13.90;89.50
76866;BME280;66647;52.124;5.416;2023-05-07T04:07:48;101736.53;;;13.90;89.13
76866;BME280;66647;52.124;5.416;2023-05-07T04:10:19;101735.38;;;13.91;89.25
76866;BME280;66647;52.124;5.416;2023-05-07T04:12:48;101737.34;;;13.90;89.33
76866;BME280;66647;52.124;5.416;2023-05-07T04:15:19;101742.84;;;13.90;89.34
76866;BME280;66647;52.124;5.416;2023-05-07T04:17:46;101741.72;;;13.91;89.08
76866;BME280;66647;52.124;5.416;2023-05-07T04:20:16;101738.31;;;13.94;89.23
76866;BME280;66647;52.124;5.416;2023-05-07T04:22:47;101736.03;;;13.96;89.28
76866;BME280;66647;52.124;5.416;2023-05-07T04:25:13;101737.16;;;13.95;88.85
76866;BME280;66647;52.124;5.416;2023-05-07T04:27:40;101735.22;;;13.96;88.54
76866;BME280;66647;52.124;5.416;2023-05-07T04:30:07;101737.16;;;13.95;88.91
76866;BME280;66647;52.124;5.416;2023-05-07T04:32:37;101743.50;;;13.96;89.12
76866;BME280;66647;52.124;5.416;2023-05-07T04:35:05;101743.13;;;13.97;88.89
76866;BME280;66647;52.124;5.416;2023-05-07T04:37:33;101746.38;;;13.99;89.10
76866;BME280;66647;52.124;5.416;2023-05-07T04:39:59;101741.56;;;13.96;89.31
76866;BME280;66647;52.124;5.416;2023-05-07T04:42:26;101747.06;;;13.96;89.65
76866;BME280;66647;52.124;5.416;2023-05-07T04:44:53;101739.94;;;13.95;89.94
76866;BME280;66647;52.124;5.416;2023-05-07T04:47:22;101741.06;;;13.94;89.70
76866;BME280;66647;52.124;5.416;2023-05-07T04:49:49;101747.06;;;13.96;89.92
76866;BME280;66647;52.124;5.416;2023-05-07T04:52:16;101747.19;;;14.00;89.72
76866;BME280;66647;52.124;5.416;2023-05-07T04:54:43;101744.44;;;14.00;89.27
76866;BME280;66647;52.124;5.416;2023-05-07T04:57:09;101757.28;;;13.96;89.35
76866;BME280;66647;52.124;5.416;2023-05-07T04:59:36;101752.41;;;13.93;89.78
76866;BME280;66647;52.124;5.416;2023-05-07T05:02:02;101756.63;;;13.90;89.35
76866;BME280;66647;52.124;5.416;2023-05-07T05:04:30;101762.63;;;13.92;89.31
76866;BME280;66647;52.124;5.416;2023-05-07T05:06:58;101756.31;;;13.92;89.00
76866;BME280;66647;52.124;5.416;2023-05-07T05:09:24;101763.78;;;13.91;88.91
76866;BME280;66647;52.124;5.416;2023-05-07T05:11:51;101753.06;;;13.90;88.90
76866;BME280;66647;52.124;5.416;2023-05-07T05:14:17;101756.63;;;13.90;89.13
76866;BME280;66647;52.124;5.416;2023-05-07T05:16:44;101766.03;;;13.89;89.16
76866;BME280;66647;52.124;5.416;2023-05-07T05:19:11;101767.19;;;13.88;88.79
76866;BME280;66647;52.124;5.416;2023-05-07T05:21:39;101765.56;;;13.87;89.32
76866;BME280;66647;52.124;5.416;2023-05-07T05:24:08;101766.38;;;13.88;88.93
76866;BME280;66647;52.124;5.416;2023-05-07T05:26:34;101763.78;;;13.91;89.08
76866;BME280;66647;52.124;5.416;2023-05-07T05:29:02;101765.72;;;13.91;88.65
76866;BME280;66647;52.124;5.416;2023-05-07T05:31:30;101766.53;;;13.91;89.35
76866;BME280;66647;52.124;5.416;2023-05-07T05:33:56;101768.16;;;13.92;89.12
76866;BME280;66647;52.124;5.416;2023-05-07T05:36:24;101779.34;;;13.96;88.67
76866;BME280;66647;52.124;5.416;2023-05-07T05:38:53;101779.66;;;13.94;89.15
76866;BME280;66647;52.124;5.416;2023-05-07T05:41:21;101787.25;;;13.97;88.94
76866;BME280;66647;52.124;5.416;2023-05-07T05:43:48;101786.13;;;13.98;89.17
76866;BME280;66647;52.124;5.416;2023-05-07T05:46:15;101785.81;;;14.00;89.24
76866;BME280;66647;52.124;5.416;2023-05-07T05:48:42;101789.38;;;14.00;89.46
76866;BME280;66647;52.124;5.416;2023-05-07T05:51:09;101795.69;;;14.01;89.24
76866;BME280;66647;52.124;5.416;2023-05-07T05:53:36;101796.66;;;14.05;89.56
76866;BME280;66647;52.124;5.416;2023-05-07T05:56:04;101802.03;;;14.10;89.22
76866;BME280;66647;52.124;5.416;2023-05-07T05:58:32;101797.97;;;14.07;89.31
76866;BME280;66647;52.124;5.416;2023-05-07T06:01:03;101806.41;;;14.11;89.46
76866;BME280;66647;52.124;5.416;2023-05-07T06:03:30;101809.31;;;14.15;89.84
76866;BME280;66647;52.124;5.416;2023-05-07T06:05:59;101806.56;;;14.15;89.28
76866;BME280;66647;52.124;5.416;2023-05-07T06:08:29;101806.09;;;14.12;89.59
76866;BME280;66647;52.124;5.416;2023-05-07T06:10:56;101818.25;;;14.11;89.46
76866;BME280;66647;52.124;5.416;2023-05-07T06:13:24;101812.72;;;14.11;89.73
76866;BME280;66647;52.124;5.416;2023-05-07T06:15:52;101814.53;;;14.07;89.83
76866;BME280;66647;52.124;5.416;2023-05-07T06:18:19;101814.53;;;14.07;90.09
76866;BME280;66647;52.124;5.416;2023-05-07T06:20:46;101813.38;;;14.08;90.63
76866;BME280;66647;52.124;5.416;2023-05-07T06:23:21;101810.78;;;14.12;90.64
76866;BME280;66647;52.124;5.416;2023-05-07T06:25:49;101808.84;;;14.12;90.82
76866;BME280;66647;52.124;5.416;2023-05-07T06:28:23;101814.03;;;14.14;90.69
76866;BME280;66647;52.124;5.416;2023-05-07T06:30:50;101813.53;;;14.12;91.33
76866;BME280;66647;52.124;5.416;2023-05-07T06:33:17;101809.66;;;14.13;90.78
76866;BME280;66647;52.124;5.416;2023-05-07T06:35:43;101810.13;;;14.15;90.85
76866;BME280;66647;52.124;5.416;2023-05-07T06:38:10;101815.50;;;14.11;91.15
76866;BME280;66647;52.124;5.416;2023-05-07T06:40:39;101815.16;;;14.13;91.20
76866;BME280;66647;52.124;5.416;2023-05-07T06:43:05;101821.00;;;14.11;91.52
76866;BME280;66647;52.124;5.416;2023-05-07T06:45:45;101818.75;;;14.13;91.88
76866;BME280;66647;52.124;5.416;2023-05-07T06:48:12;101820.53;;;14.09;92.11
76866;BME280;66647;52.124;5.416;2023-05-07T06:50:49;101814.34;;;14.12;92.56
76866;BME280;66647;52.124;5.416;2023-05-07T06:53:17;101818.25;;;14.11;92.25
76866;BME280;66647;52.124;5.416;2023-05-07T06:55:43;101813.88;;;14.10;92.36
76866;BME280;66647;52.124;5.416;2023-05-07T06:58:12;101814.84;;;14.15;92.68
76866;BME280;66647;52.124;5.416;2023-05-07T07:00:38;101822.94;;;14.20;92.45
76866;BME280;66647;52.124;5.416;2023-05-07T07:03:05;101820.03;;;14.25;92.60
76866;BME280;66647;52.124;5.416;2023-05-07T07:05:32;101818.03;;;14.34;92.57
76866;BME280;66647;52.124;5.416;2023-05-07T07:08:00;101819.50;;;14.40;92.33
76866;BME280;66647;52.124;5.416;2023-05-07T07:10:27;101818.22;;;14.55;92.29
76866;BME280;66647;52.124;5.416;2023-05-07T07:12:54;101814.59;;;14.63;91.20
76866;BME280;66647;52.124;5.416;2023-05-07T07:15:21;101808.56;;;14.69;91.12
76866;BME280;66647;52.124;5.416;2023-05-07T07:17:50;101821.38;;;14.83;91.41
76866;BME280;66647;52.124;5.416;2023-05-07T07:20:17;101815.06;;;15.11;89.26
76866;BME280;66647;52.124;5.416;2023-05-07T07:22:44;101813.59;;;15.14;90.06
76866;BME280;66647;52.124;5.416;2023-05-07T07:25:11;101808.28;;;15.30;89.88
76866;BME280;66647;52.124;5.416;2023-05-07T07:27:38;101804.25;;;15.57;89.18
76866;BME280;66647;52.124;5.416;2023-05-07T07:30:06;101811.84;;;15.60;88.28
76866;BME280;66647;52.124;5.416;2023-05-07T07:32:36;101810.72;;;15.61;87.68
76866;BME280;66647;52.124;5.416;2023-05-07T07:35:03;101813.47;;;15.61;87.43
76866;BME280;66647;52.124;5.416;2023-05-07T07:37:31;101821.25;;;15.67;86.92
76866;BME280;66647;52.124;5.416;2023-05-07T07:39:59;101817.31;;;15.68;85.86
76866;BME280;66647;52.124;5.416;2023-05-07T07:42:26;101818.63;;;15.71;86.36
76866;BME280;66647;52.124;5.416;2023-05-07T07:44:52;101820.94;;;15.90;86.25
76866;BME280;66647;52.124;5.416;2023-05-07T07:47:21;101820.28;;;16.05;85.84
76866;BME280;66647;52.124;5.416;2023-05-07T07:49:49;101825.69;;;16.22;85.29
76866;BME280;66647;52.124;5.416;2023-05-07T07:52:16;101822.94;;;16.34;85.23
76866;BME280;66647;52.124;5.416;2023-05-07T07:54:44;101833.94;;;16.43;84.59
76866;BME280;66647;52.124;5.416;2023-05-07T07:57:10;101825.78;;;16.59;85.41
76866;BME280;66647;52.124;5.416;2023-05-07T07:59:39;101828.81;;;16.66;81.09
76866;BME280;66647;52.124;5.416;2023-05-07T08:02:07;101834.69;;;16.64;82.59
76866;BME280;66647;52.124;5.416;2023-05-07T08:04:34;101828.66;;;16.62;83.22
76866;BME280;66647;52.124;5.416;2023-05-07T08:07:03;101835.59;;;16.56;83.86
76866;BME280;66647;52.124;5.416;2023-05-07T08:09:33;101836.50;;;16.48;83.43
76866;BME280;66647;52.124;5.416;2023-05-07T08:12:01;101840.50;;;16.38;82.78
76866;BME280;66647;52.124;5.416;2023-05-07T08:14:31;101845.41;;;16.33;83.83
76866;BME280;66647;52.124;5.416;2023-05-07T08:16:59;101839.19;;;16.24;83.86
76866;BME280;66647;52.124;5.416;2023-05-07T08:19:26;101844.25;;;16.22;84.74
76866;BME280;66647;52.124;5.416;2023-05-07T08:21:53;101840.75;;;16.12;85.71
76866;BME280;66647;52.124;5.416;2023-05-07T08:24:21;101849.25;;;16.07;86.98
76866;BME280;66647;52.124;5.416;2023-05-07T08:26:48;101843.44;;;16.00;87.74
76866;BME280;66647;52.124;5.416;2023-05-07T08:29:16;101846.28;;;15.92;87.33
76866;BME280;66647;52.124;5.416;2023-05-07T08:31:42;101844.06;;;15.85;87.67
76866;BME280;66647;52.124;5.416;2023-05-07T08:34:09;101842.34;;;15.93;89.61
76866;BME280;66647;52.124;5.416;2023-05-07T08:36:40;101849.41;;;15.90;87.38
76866;BME280;66647;52.124;5.416;2023-05-07T08:39:09;101847.06;;;15.92;88.41
76866;BME280;66647;52.124;5.416;2023-05-07T08:41:36;101846.75;;;15.94;88.37
76866;BME280;66647;52.124;5.416;2023-05-07T08:44:06;101843.31;;;15.97;89.97
76866;BME280;66647;52.124;5.416;2023-05-07T08:46:39;101847.78;;;15.89;89.45
76866;BME280;66647;52.124;5.416;2023-05-07T08:49:08;101847.78;;;15.89;89.61
76866;BME280;66647;52.124;5.416;2023-05-07T08:51:35;101839.16;;;15.91;90.66
76866;BME280;66647;52.124;5.416;2023-05-07T08:54:02;101842.50;;;15.96;89.58
76866;BME280;66647;52.124;5.416;2023-05-07T08:56:31;101846.88;;;15.97;89.16
76866;BME280;66647;52.124;5.416;2023-05-07T08:58:58;101855.66;;;15.99;88.63
76866;BME280;66647;52.124;5.416;2023-05-07T09:01:27;101855.50;;;15.96;89.29
76866;BME280;66647;52.124;5.416;2023-05-07T09:03:55;101858.63;;;15.94;89.76
76866;BME280;66647;52.124;5.416;2023-05-07T09:06:22;101853.34;;;16.01;90.67
76866;BME280;66647;52.124;5.416;2023-05-07T09:08:53;101847.69;;;15.98;91.13
76866;BME280;66647;52.124;5.416;2023-05-07T09:11:23;101847.00;;;16.01;90.90
76866;BME280;66647;52.124;5.416;2023-05-07T09:13:56;101849.44;;;16.02;91.48
76866;BME280;66647;52.124;5.416;2023-05-07T09:16:25;101845.25;;;15.96;90.29
76866;BME280;66647;52.124;5.416;2023-05-07T09:18:53;101846.19;;;16.00;91.28
76866;BME280;66647;52.124;5.416;2023-05-07T09:21:21;101852.63;;;16.13;91.78
76866;BME280;66647;52.124;5.416;2023-05-07T09:23:52;101842.97;;;16.19;90.07
76866;BME280;66647;52.124;5.416;2023-05-07T09:26:22;101856.94;;;16.23;89.30
76866;BME280;66647;52.124;5.416;2023-05-07T09:28:48;101848.84;;;16.18;88.91
76866;BME280;66647;52.124;5.416;2023-05-07T09:31:17;101850.66;;;16.13;89.13
76866;BME280;66647;52.124;5.416;2023-05-07T09:33:46;101853.09;;;16.15;89.14
76866;BME280;66647;52.124;5.416;2023-05-07T09:36:13;101854.38;;;16.18;88.90
76866;BME280;66647;52.124;5.416;2023-05-07T09:38:43;101860.38;;;16.20;88.74
76866;BME280;66647;52.124;5.416;2023-05-07T09:41:12;101861.72;;;16.13;87.05
76866;BME280;66647;52.124;5.416;2023-05-07T09:43:56;101855.13;;;16.06;86.50
76866;BME280;66647;52.124;5.416;2023-05-07T09:46:30;101852.81;;;16.08;88.47
76866;BME280;66647;52.124;5.416;2023-05-07T09:49:01;101853.22;;;16.19;88.77
76866;BME280;66647;52.124;5.416;2023-05-07T09:51:40;101855.56;;;16.29;88.19
76866;BME280;66647;52.124;5.416;2023-05-07T09:54:09;101862.38;;;16.31;87.02
76866;BME280;66647;52.124;5.416;2023-05-07T09:56:39;101857.66;;;16.32;87.17
76866;BME280;66647;52.124;5.416;2023-05-07T09:59:12;101860.34;;;16.40;87.14
76866;BME280;66647;52.124;5.416;2023-05-07T10:01:41;101855.75;;;16.44;86.24
76866;BME280;66647;52.124;5.416;2023-05-07T10:04:10;101868.56;;;16.49;86.89
76866;BME280;66647;52.124;5.416;2023-05-07T10:06:38;101875.03;;;16.53;87.03
76866;BME280;66647;52.124;5.416;2023-05-07T10:09:05;101867.94;;;16.64;87.49
76866;BME280;66647;52.124;5.416;2023-05-07T10:11:33;101876.63;;;16.75;86.51
76866;BME280;66647;52.124;5.416;2023-05-07T10:14:01;101872.63;;;16.85;87.13
76866;BME280;66647;52.124;5.416;2023-05-07T10:16:35;101870.06;;;16.92;86.34
76866;BME280;66647;52.124;5.416;2023-05-07T10:19:07;101871.03;;;17.08;86.81
76866;BME280;66647;52.124;5.416;2023-05-07T10:21:37;101873.47;;;17.22;83.89
76866;BME280;66647;52.124;5.416;2023-05-07T10:24:15;101868.25;;;17.32;85.61
76866;BME280;66647;52.124;5.416;2023-05-07T10:26:50;101873.94;;;17.48;84.76
76866;BME280;66647;52.124;5.416;2023-05-07T10:34:38;101868.25;;;17.81;82.45
76866;BME280;66647;52.124;5.416;2023-05-07T10:37:07;101868.72;;;17.83;82.79
76866;BME280;66647;52.124;5.416;2023-05-07T10:39:34;101871.44;;;17.95;82.23
76866;BME280;66647;52.124;5.416;2023-05-07T10:42:13;101871.88;;;18.09;80.10
76866;BME280;66647;52.124;5.416;2023-05-07T10:44:45;101870.25;;;18.36;80.43
76866;BME280;66647;52.124;5.416;2023-05-07T10:47:20;101874.16;;;18.75;79.00
76866;BME280;66647;52.124;5.416;2023-05-07T10:52:24;101865.53;;;19.43;78.13
76866;BME280;66647;52.124;5.416;2023-05-07T10:58:24;101867.13;;;19.95;76.00
76866;BME280;66647;52.124;5.416;2023-05-07T11:01:49;101869.91;;;19.95;75.16
76866;BME280;66647;52.124;5.416;2023-05-07T11:04:20;101863.53;;;19.95;74.37
76866;BME280;66647;52.124;5.416;2023-05-07T11:07:26;101863.25;;;20.00;74.63
76866;BME280;66647;52.124;5.416;2023-05-07T11:10:00;101864.34;;;19.95;73.20
76866;BME280;66647;52.124;5.416;2023-05-07T11:12:51;101866.59;;;19.90;73.67
76866;BME280;66647;52.124;5.416;2023-05-07T11:15:41;101875.28;;;20.04;74.09
76866;BME280;66647;52.124;5.416;2023-05-07T11:18:17;101867.00;;;20.07;74.29
76866;BME280;66647;52.124;5.416;2023-05-07T11:20:52;101870.06;;;20.02;74.37
76866;BME280;66647;52.124;5.416;2023-05-07T11:26:15;101873.16;;;19.97;73.81
76866;BME280;66647;52.124;5.416;2023-05-07T11:28:43;101879.31;;;20.06;72.74
76866;BME280;66647;52.124;5.416;2023-05-07T11:31:10;101887.66;;;20.06;73.28
76866;BME280;66647;52.124;5.416;2023-05-07T11:33:40;101881.44;;;20.13;73.12
76866;BME280;66647;52.124;5.416;2023-05-07T11:36:13;101870.22;;;20.29;73.01
76866;BME280;66647;52.124;5.416;2023-05-07T11:38:45;101875.00;;;20.48;70.69
76866;BME280;66647;52.124;5.416;2023-05-07T11:41:11;101873.13;;;20.74;70.96
76866;BME280;66647;52.124;5.416;2023-05-07T11:43:54;101874.63;;;20.91;71.01
76866;BME280;66647;52.124;5.416;2023-05-07T11:46:22;101863.22;;;21.00;69.86
76866;BME280;66647;52.124;5.416;2023-05-07T11:48:49;101872.91;;;21.06;71.91
76866;BME280;66647;52.124;5.416;2023-05-07T11:51:19;101872.41;;;21.00;70.63
76866;BME280;66647;52.124;5.416;2023-05-07T11:53:47;101871.28;;;21.05;70.39
76866;BME280;66647;52.124;5.416;2023-05-07T11:56:15;101871.16;;;20.98;70.31
76866;BME280;66647;52.124;5.416;2023-05-07T11:58:43;101873.22;;;21.01;69.97
76866;BME280;66647;52.124;5.416;2023-05-07T12:01:11;101872.84;;;21.02;71.09
76866;BME280;66647;52.124;5.416;2023-05-07T12:03:43;101884.72;;;20.99;70.93
76866;BME280;66647;52.124;5.416;2023-05-07T12:06:14;101877.03;;;20.93;70.07
76866;BME280;66647;52.124;5.416;2023-05-07T12:08:42;101883.41;;;21.16;71.49
76866;BME280;66647;52.124;5.416;2023-05-07T12:11:25;101877.75;;;21.32;70.94
76866;BME280;66647;52.124;5.416;2023-05-07T12:13:53;101869.09;;;21.40;69.73
76866;BME280;66647;52.124;5.416;2023-05-07T12:16:25;101869.09;;;21.67;68.86
76866;BME280;66647;52.124;5.416;2023-05-07T12:18:52;101879.91;;;21.98;67.32
76866;BME280;66647;52.124;5.416;2023-05-07T12:21:21;101871.50;;;22.25;64.80
76866;BME280;66647;52.124;5.416;2023-05-07T12:23:50;101874.84;;;22.37;66.75
76866;BME280;66647;52.124;5.416;2023-05-07T12:26:19;101866.75;;;22.29;65.29
76866;BME280;66647;52.124;5.416;2023-05-07T12:28:48;101872.50;;;22.43;65.20
76866;BME280;66647;52.124;5.416;2023-05-07T12:31:14;101871.41;;;22.18;64.88
76866;BME280;66647;52.124;5.416;2023-05-07T12:33:42;101876.31;;;22.28;66.33
76866;BME280;66647;52.124;5.416;2023-05-07T12:36:11;101872.78;;;22.31;68.13
76866;BME280;66647;52.124;5.416;2023-05-07T12:38:39;101873.97;;;22.30;64.63
76866;BME280;66647;52.124;5.416;2023-05-07T12:41:08;101864.53;;;22.11;64.11
76866;BME280;66647;52.124;5.416;2023-05-07T12:43:36;101878.31;;;21.97;65.40
76866;BME280;66647;52.124;5.416;2023-05-07T12:46:05;101875.25;;;22.06;63.11
76866;BME280;66647;52.124;5.416;2023-05-07T12:48:32;101879.06;;;21.94;63.33
76866;BME280;66647;52.124;5.416;2023-05-07T12:51:00;101874.13;;;21.84;62.85
76866;BME280;66647;52.124;5.416;2023-05-07T12:53:28;101875.84;;;21.92;63.38
76866;BME280;66647;52.124;5.416;2023-05-07T12:55:57;101877.53;;;22.00;63.26
76866;BME280;66647;52.124;5.416;2023-05-07T13:00:52;101876.69;;;21.96;63.40
76866;BME280;66647;52.124;5.416;2023-05-07T13:03:26;101879.91;;;21.98;61.40
76866;BME280;66647;52.124;5.416;2023-05-07T13:05:55;101881.19;;;22.01;59.87
76866;BME280;66647;52.124;5.416;2023-05-07T13:08:32;101881.78;;;22.17;60.85
76866;BME280;66647;52.124;5.416;2023-05-07T13:11:00;101883.94;;;22.31;62.07
76866;BME280;66647;52.124;5.416;2023-05-07T13:13:34;101890.53;;;22.49;62.12
76866;BME280;66647;52.124;5.416;2023-05-07T13:16:01;101886.25;;;22.59;62.48